createdAt,value
2023-03-16T00:00:24.690Z,4.30
2023-03-16T00:04:35.432Z,4.30
2023-03-16T00:08:44.120Z,4.30
2023-03-16T00:12:53.882Z,4.30
2023-03-16T00:17:04.362Z,4.30
2023-03-16T00:21:14.850Z,4.30
2023-03-16T00:25:24.427Z,4.30
2023-03-16T00:29:34.913Z,4.30
2023-03-16T00:33:44.431Z,4.30
2023-03-16T00:37:54.711Z,4.30
2023-03-16T00:42:24.993Z,4.30
2023-03-16T00:46:34.099Z,4.30
2023-03-16T00:51:06.539Z,4.30
2023-03-16T00:55:15.143Z,4.30
2023-03-16T00:59:25.426Z,4.30
2023-03-16T01:03:34.863Z,4.30
2023-03-16T01:07:45.000Z,4.30
2023-03-16T01:11:54.780Z,4.30
2023-03-16T01:16:03.997Z,4.30
2023-03-16T01:20:14.936Z,4.30
2023-03-16T01:24:24.250Z,4.30
2023-03-16T01:28:34.229Z,4.30
2023-03-16T01:32:43.240Z,4.30
2023-03-16T01:36:52.711Z,4.30
2023-03-16T01:41:02.147Z,4.30
2023-03-16T01:50:03.975Z,4.40
2023-03-16T01:54:24.881Z,4.40
2023-03-16T01:58:54.279Z,4.40
2023-03-16T02:03:13.355Z,4.40
2023-03-16T02:07:25.074Z,4.40
2023-03-16T02:11:34.775Z,4.40
2023-03-16T02:15:43.432Z,4.40
2023-03-16T02:19:55.142Z,4.40
2023-03-16T02:24:04.654Z,4.40
2023-03-16T02:28:32.977Z,4.40
2023-03-16T02:32:42.402Z,4.40
2023-03-16T02:36:53.010Z,4.40
2023-03-16T02:41:22.414Z,4.40
2023-03-16T02:45:34.037Z,4.40
2023-03-16T02:50:03.658Z,4.40
2023-03-16T02:54:12.880Z,4.40
2023-03-16T02:58:21.526Z,4.40
2023-03-16T03:02:30.157Z,4.40
2023-03-16T03:06:38.893Z,4.40
2023-03-16T03:10:47.807Z,4.40
2023-03-16T03:15:16.724Z,4.40
2023-03-16T03:19:25.228Z,4.40
2023-03-16T03:23:53.791Z,4.40
2023-03-16T03:28:05.412Z,4.40
2023-03-16T03:32:14.183Z,4.40
2023-03-16T03:36:23.000Z,4.40
2023-03-16T03:40:31.656Z,4.40
2023-03-16T03:44:40.255Z,4.50
2023-03-16T03:48:48.888Z,4.50
2023-03-16T03:52:57.534Z,4.40
2023-03-16T03:57:06.857Z,4.40
2023-03-16T04:01:15.352Z,4.40
2023-03-16T04:05:25.649Z,4.40
2023-03-16T04:09:34.571Z,4.40
2023-03-16T04:13:43.218Z,4.50
2023-03-16T04:18:12.897Z,4.50
2023-03-16T04:22:23.360Z,4.50
2023-03-16T04:26:34.219Z,4.50
2023-03-16T04:30:42.900Z,4.50
2023-03-16T04:34:53.186Z,4.50
2023-03-16T04:39:02.224Z,4.50
2023-03-16T04:43:10.752Z,4.50
2023-03-16T04:47:19.348Z,4.50
2023-03-16T04:51:28.231Z,4.50
2023-03-16T04:55:36.839Z,4.50
2023-03-16T04:59:45.598Z,4.50
2023-03-16T05:03:54.514Z,4.50
2023-03-16T05:08:04.722Z,4.50
2023-03-16T05:12:32.657Z,4.40
2023-03-16T05:16:42.000Z,4.50
2023-03-16T05:20:54.280Z,4.50
2023-03-16T05:25:04.598Z,4.50
2023-03-16T05:29:13.211Z,4.50
2023-03-16T05:33:21.770Z,4.40
2023-03-16T05:37:31.187Z,4.50
2023-03-16T05:41:40.123Z,4.50
2023-03-16T05:45:48.857Z,4.40
2023-03-16T05:49:57.395Z,4.50
2023-03-16T05:54:06.015Z,4.50
2023-03-16T05:58:14.639Z,4.50
2023-03-16T06:02:23.561Z,4.50
2023-03-16T06:06:32.513Z,4.60
2023-03-16T06:10:41.047Z,4.60
2023-03-16T06:14:49.666Z,4.60
2023-03-16T06:18:59.826Z,4.60
2023-03-16T06:23:08.773Z,4.60
2023-03-16T06:27:18.525Z,4.60
2023-03-16T06:31:27.278Z,4.70
2023-03-16T06:35:36.207Z,4.70
2023-03-16T06:39:44.819Z,4.70
2023-03-16T06:43:54.181Z,4.80
2023-03-16T06:48:04.334Z,4.90
2023-03-16T06:52:13.837Z,4.90
2023-03-16T06:56:22.323Z,5.00
2023-03-16T07:00:31.563Z,5.10
2023-03-16T07:04:40.415Z,5.20
2023-03-16T07:08:49.129Z,5.30
2023-03-16T07:12:57.843Z,5.30
2023-03-16T07:17:26.018Z,5.40
2023-03-16T07:21:36.296Z,5.40
2023-03-16T07:26:04.274Z,5.40
2023-03-16T07:30:14.412Z,5.50
2023-03-16T07:34:23.068Z,5.50
2023-03-16T07:38:33.813Z,5.60
2023-03-16T07:42:42.800Z,5.60
2023-03-16T07:46:51.718Z,5.60
2023-03-16T07:51:00.347Z,5.50
2023-03-16T07:55:09.624Z,5.60
2023-03-16T07:59:20.791Z,5.60
2023-03-16T08:03:31.920Z,5.60
2023-03-16T08:07:52.577Z,5.70
2023-03-16T08:12:01.212Z,5.60
2023-03-16T08:16:10.762Z,5.70
2023-03-16T08:20:19.718Z,5.70
2023-03-16T08:24:29.491Z,5.80
2023-03-16T08:28:38.169Z,5.80
2023-03-16T08:32:46.863Z,5.80
2023-03-16T08:36:55.780Z,5.80
2023-03-16T08:41:05.019Z,5.90
2023-03-16T08:45:15.060Z,5.90
2023-03-16T08:49:24.120Z,6.10
2023-03-16T08:53:33.356Z,6.20
2023-03-16T08:57:43.300Z,6.20
2023-03-16T09:02:14.054Z,6.30
2023-03-16T09:06:22.664Z,6.30
2023-03-16T09:10:32.518Z,6.40
2023-03-16T09:15:00.504Z,6.50
2023-03-16T09:19:09.339Z,6.50
2023-03-16T09:23:41.826Z,6.60
2023-03-16T09:27:50.698Z,6.70
2023-03-16T09:31:59.491Z,6.70
2023-03-16T09:36:08.041Z,6.80
2023-03-16T09:40:25.268Z,6.90
2023-03-16T09:45:05.432Z,6.90
2023-03-16T09:49:16.111Z,7.00
2023-03-16T09:53:30.833Z,7.00
2023-03-16T09:57:42.604Z,7.20
2023-03-16T10:02:10.822Z,7.20
2023-03-16T10:06:20.717Z,7.20
2023-03-16T10:10:51.654Z,7.20
2023-03-16T10:15:06.449Z,7.20
2023-03-16T10:19:42.173Z,7.40
2023-03-16T10:24:27.251Z,7.30
2023-03-16T10:28:37.617Z,7.40
2023-03-16T10:32:47.283Z,7.60
2023-03-16T10:36:56.249Z,7.70
2023-03-16T10:41:06.718Z,7.90
2023-03-16T10:45:27.846Z,8.00
2023-03-16T10:49:42.207Z,8.20
2023-03-16T10:53:52.782Z,8.30
2023-03-16T10:58:02.145Z,8.40
2023-03-16T11:02:20.577Z,8.50
2023-03-16T11:06:31.362Z,8.60
2023-03-16T11:10:54.711Z,8.80
2023-03-16T11:14:54.546Z,9.20
2023-03-16T11:19:22.966Z,9.40
2023-03-16T11:23:37.176Z,9.60
2023-03-16T11:27:54.958Z,9.90
2023-03-16T11:32:07.385Z,10.20
2023-03-16T11:36:26.867Z,10.40
2023-03-16T11:41:04.791Z,10.60
2023-03-16T11:45:24.938Z,10.90
2023-03-16T11:49:36.884Z,11.00
2023-03-16T11:54:21.538Z,11.30
2023-03-16T11:58:47.586Z,11.40
2023-03-16T12:02:59.781Z,11.30
2023-03-16T12:07:23.383Z,11.20
2023-03-16T12:11:41.977Z,11.00
2023-03-16T12:15:54.664Z,10.80
2023-03-16T12:20:24.993Z,10.60
2023-03-16T12:24:36.601Z,10.50
2023-03-16T12:28:45.832Z,10.40
2023-03-16T12:33:09.830Z,10.40
2023-03-16T12:37:42.145Z,10.40
2023-03-16T12:42:05.614Z,10.50
2023-03-16T12:46:20.003Z,10.60
2023-03-16T12:50:28.812Z,10.60
2023-03-16T12:54:38.026Z,10.60
2023-03-16T12:58:51.238Z,10.60
2023-03-16T13:03:01.529Z,10.70
2023-03-16T13:07:14.143Z,10.80
2023-03-16T13:11:22.698Z,11.00
2023-03-16T13:15:31.681Z,11.20
2023-03-16T13:19:40.395Z,11.30
2023-03-16T13:23:58.561Z,11.40
2023-03-16T13:28:09.483Z,11.60
2023-03-16T13:32:20.187Z,11.70
2023-03-16T13:36:31.839Z,11.90
2023-03-16T13:40:48.785Z,11.90
2023-03-16T13:45:00.062Z,11.90
2023-03-16T13:49:30.670Z,11.90
2023-03-16T13:53:42.762Z,11.90
2023-03-16T13:57:51.509Z,11.80
2023-03-16T14:02:02.092Z,11.80
2023-03-16T14:06:19.865Z,11.70
2023-03-16T14:10:32.171Z,11.80
2023-03-16T14:14:41.984Z,11.90
2023-03-16T14:18:56.318Z,11.90
2023-03-16T14:23:05.250Z,11.90
2023-03-16T14:27:42.183Z,11.90
2023-03-16T14:31:51.080Z,12.00
2023-03-16T14:36:01.327Z,12.10
2023-03-16T14:40:25.241Z,12.10
2023-03-16T14:44:36.983Z,12.00
2023-03-16T14:52:57.373Z,11.90
2023-03-16T14:57:06.834Z,12.00
2023-03-16T15:01:18.243Z,12.00
2023-03-16T15:05:30.124Z,12.00
2023-03-16T15:09:43.160Z,11.90
2023-03-16T15:13:53.836Z,11.90
2023-03-16T15:18:02.761Z,11.90
2023-03-16T15:22:13.144Z,11.80
2023-03-16T15:26:26.378Z,11.80
2023-03-16T15:30:35.187Z,11.80
2023-03-16T15:34:47.916Z,11.70
2023-03-16T15:38:56.834Z,11.60
2023-03-16T15:43:07.422Z,11.50
2023-03-16T15:47:16.514Z,11.50
2023-03-16T15:51:28.898Z,11.40
2023-03-16T15:56:02.810Z,11.30
2023-03-16T16:00:20.257Z,11.30
2023-03-16T16:04:29.462Z,11.30
2023-03-16T16:08:38.037Z,11.20
2023-03-16T16:12:51.096Z,11.10
2023-03-16T16:16:59.717Z,11.10
2023-03-16T16:21:11.284Z,11.10
2023-03-16T16:25:41.334Z,11.00
2023-03-16T16:29:50.017Z,10.90
2023-03-16T16:34:03.386Z,10.90
2023-03-16T16:38:09.388Z,10.80
2023-03-16T16:42:18.399Z,10.80
2023-03-16T16:46:29.313Z,10.70
2023-03-16T16:50:37.971Z,10.70
2023-03-16T16:54:46.703Z,10.60
2023-03-16T16:58:56.581Z,10.50
2023-03-16T17:03:06.689Z,10.50
2023-03-16T17:07:15.514Z,10.40
2023-03-16T17:11:30.854Z,10.30
2023-03-16T17:15:40.355Z,10.30
2023-03-16T17:20:10.032Z,10.30
2023-03-16T17:24:18.858Z,10.20
2023-03-16T17:28:29.740Z,10.10
2023-03-16T17:32:38.323Z,10.10
2023-03-16T17:36:47.483Z,10.00
2023-03-16T17:40:56.665Z,10.00
2023-03-16T17:45:07.449Z,9.90
2023-03-16T17:49:18.128Z,9.80
2023-03-16T17:53:26.628Z,9.80
2023-03-16T17:57:36.204Z,9.80
2023-03-16T18:01:46.359Z,9.70
2023-03-16T18:05:55.192Z,9.60
2023-03-16T18:10:03.806Z,9.60
2023-03-16T18:14:35.277Z,9.50
2023-03-16T18:18:44.460Z,9.50
2023-03-16T18:22:53.357Z,9.50
2023-03-16T18:27:01.973Z,9.40
2023-03-16T18:31:25.708Z,9.40
2023-03-16T18:35:36.541Z,9.40
2023-03-16T18:39:45.459Z,9.40
2023-03-16T18:44:00.974Z,9.40
2023-03-16T18:48:27.617Z,9.30
2023-03-16T18:52:39.100Z,9.20
2023-03-16T18:56:47.810Z,9.30
2023-03-16T19:00:58.725Z,9.20
2023-03-16T19:05:11.127Z,9.20
2023-03-16T19:09:25.720Z,9.20
2023-03-16T19:13:34.406Z,9.10
2023-03-16T19:17:43.112Z,9.10
2023-03-16T19:21:54.586Z,9.10
2023-03-16T19:26:03.391Z,9.10
2023-03-16T19:30:15.954Z,9.00
2023-03-16T19:34:24.920Z,9.00
2023-03-16T19:38:36.756Z,9.00
2023-03-16T19:42:45.795Z,9.00
2023-03-16T19:46:55.074Z,8.90
2023-03-16T19:51:05.405Z,8.80
2023-03-16T19:55:38.319Z,8.80
2023-03-16T19:59:52.708Z,8.80
2023-03-16T20:04:03.109Z,8.80
2023-03-16T20:08:21.195Z,8.70
2023-03-16T20:12:30.971Z,8.70
2023-03-16T20:16:39.930Z,8.80
2023-03-16T20:20:48.612Z,8.80
2023-03-16T20:24:58.123Z,8.70
2023-03-16T20:29:09.375Z,8.70
2023-03-16T20:33:22.760Z,8.70
2023-03-16T20:37:32.265Z,8.80
2023-03-16T20:41:41.271Z,8.80
2023-03-16T20:45:50.802Z,8.70
2023-03-16T20:49:59.504Z,8.80
2023-03-16T20:54:09.999Z,8.80
2023-03-16T20:58:24.496Z,8.70
2023-03-16T21:02:38.676Z,8.70
2023-03-16T21:06:49.120Z,8.70
2023-03-16T21:10:59.390Z,8.70
2023-03-16T21:15:13.961Z,8.60
2023-03-16T21:19:24.230Z,8.60
2023-03-16T21:23:36.082Z,8.60
2023-03-16T21:27:44.861Z,8.60
2023-03-16T21:31:53.668Z,8.60
2023-03-16T21:36:03.958Z,8.60
2023-03-16T21:40:21.816Z,8.50
2023-03-16T21:44:30.438Z,8.50
2023-03-16T21:48:41.060Z,8.50
2023-03-16T21:52:51.567Z,8.40
2023-03-16T21:57:00.317Z,8.40
2023-03-16T22:01:11.871Z,8.40
2023-03-16T22:05:29.730Z,8.40
2023-03-16T22:09:39.439Z,8.40
2023-03-16T22:13:49.331Z,8.40
2023-03-16T22:17:59.530Z,8.40
2023-03-16T22:22:11.170Z,8.40
2023-03-16T22:26:22.333Z,8.30
2023-03-16T22:30:31.529Z,8.30
2023-03-16T22:34:59.551Z,8.30
2023-03-16T22:39:27.901Z,8.30
2023-03-16T22:43:39.102Z,8.40
2023-03-16T22:47:47.963Z,8.30
2023-03-16T22:51:58.228Z,8.30
2023-03-16T22:56:26.423Z,8.30
2023-03-16T23:00:54.978Z,8.30
2023-03-16T23:05:05.162Z,8.30
2023-03-16T23:09:15.276Z,8.30
2023-03-16T23:13:27.285Z,8.30
2023-03-16T23:17:36.496Z,8.30
2023-03-16T23:21:45.125Z,8.30
2023-03-16T23:25:53.858Z,8.30
2023-03-16T23:30:02.588Z,8.30
2023-03-16T23:34:30.575Z,8.30
2023-03-16T23:38:39.127Z,8.40
2023-03-16T23:42:48.839Z,8.40
2023-03-16T23:46:57.825Z,8.40
2023-03-16T23:51:07.581Z,8.40
2023-03-16T23:55:16.887Z,8.40
2023-03-16T23:59:26.590Z,8.40
